createdAt,value
2018-04-19T00:01:17.234Z,10.98
2018-04-19T00:03:43.603Z,16.50
2018-04-19T00:06:10.784Z,12.35
2018-04-19T00:08:37.158Z,14.35
2018-04-19T00:11:03.626Z,17.33
2018-04-19T00:13:30.026Z,16.83
2018-04-19T00:15:57.159Z,14.87
2018-04-19T00:18:23.564Z,14.70
2018-04-19T00:20:50.689Z,13.10
2018-04-19T00:23:17.108Z,17.92
2018-04-19T00:25:43.498Z,16.70
2018-04-19T00:28:09.899Z,16.05
2018-04-19T00:30:36.274Z,14.82
2018-04-19T00:33:04.391Z,13.20
2018-04-19T00:35:30.802Z,22.10
2018-04-19T00:37:57.230Z,18.85
2018-04-19T00:40:24.358Z,13.65
2018-04-19T00:42:50.785Z,13.77
2018-04-19T00:45:17.963Z,13.40
2018-04-19T00:47:44.365Z,16.08
2018-04-19T00:50:10.777Z,12.52
2018-04-19T00:55:47.582Z,15.75
2018-04-19T00:58:14.005Z,15.40
2018-04-19T01:00:40.363Z,18.17
2018-04-19T01:03:07.490Z,13.00
2018-04-19T01:05:33.894Z,15.18
2018-04-19T01:08:00.308Z,15.07
2018-04-19T01:10:26.728Z,15.77
2018-04-19T01:12:53.161Z,16.48
2018-04-19T01:15:19.555Z,22.05
2018-04-19T01:17:45.965Z,13.70
2018-04-19T01:20:12.465Z,19.15
2018-04-19T01:22:45.978Z,16.27
2018-04-19T01:25:12.469Z,16.52
2018-04-19T01:27:39.589Z,16.50
2018-04-19T01:30:05.982Z,13.10
2018-04-19T01:32:32.377Z,16.55
2018-04-19T01:34:58.782Z,16.67
2018-04-19T01:37:25.195Z,18.20
2018-04-19T01:39:51.577Z,17.20
2018-04-19T01:42:18.723Z,15.18
2018-04-19T01:44:45.874Z,18.30
2018-04-19T01:47:12.267Z,20.48
2018-04-19T01:49:39.510Z,20.80
2018-04-19T01:52:05.928Z,22.02
2018-04-19T01:54:32.309Z,16.35
2018-04-19T01:56:58.677Z,19.10
2018-04-19T01:59:25.115Z,15.38
2018-04-19T02:01:51.612Z,24.50
2018-04-19T02:04:18.008Z,17.95
2018-04-19T02:06:44.458Z,16.00
2018-04-19T02:09:10.884Z,16.30
2018-04-19T02:11:37.298Z,18.58
2018-04-19T02:14:03.731Z,14.82
2018-04-19T02:16:30.868Z,20.37
2018-04-19T02:18:57.271Z,18.17
2018-04-19T02:21:23.628Z,20.60
2018-04-19T02:23:50.024Z,22.25
2018-04-19T02:26:16.402Z,20.92
2018-04-19T02:28:42.768Z,18.95
2018-04-19T02:31:09.155Z,21.00
2018-04-19T02:33:35.536Z,18.92
2018-04-19T02:36:01.964Z,18.80
2018-04-19T02:38:28.337Z,17.87
2018-04-19T02:40:54.707Z,24.05
2018-04-19T02:43:21.833Z,19.67
2018-04-19T02:45:48.249Z,21.48
2018-04-19T02:48:14.632Z,23.67
2018-04-19T02:50:41.021Z,21.08
2018-04-19T02:53:07.384Z,19.37
2018-04-19T02:55:33.844Z,16.48
2018-04-19T02:58:00.252Z,19.52
2018-04-19T03:00:27.380Z,20.88
2018-04-19T03:02:53.815Z,20.23
2018-04-19T03:05:20.191Z,14.55
2018-04-19T03:07:46.662Z,18.83
2018-04-19T03:10:13.838Z,18.10
2018-04-19T03:12:40.994Z,24.67
2018-04-19T03:15:07.376Z,22.92
2018-04-19T03:17:33.792Z,19.15
2018-04-19T03:20:00.164Z,19.15
2018-04-19T03:22:26.547Z,21.25
2018-04-19T03:24:52.946Z,24.65
2018-04-19T03:27:20.125Z,15.32
2018-04-19T03:29:46.512Z,18.17
2018-04-19T03:32:13.654Z,19.27
2018-04-19T03:34:40.080Z,15.55
2018-04-19T03:37:06.495Z,21.10
2018-04-19T03:39:32.893Z,18.67
2018-04-19T03:41:59.292Z,19.30
2018-04-19T03:44:26.411Z,22.80
2018-04-19T03:46:52.799Z,23.02
2018-04-19T03:49:19.232Z,19.10
2018-04-19T03:51:45.638Z,20.80
2018-04-19T03:54:12.781Z,18.20
2018-04-19T03:56:39.221Z,21.35
2018-04-19T03:59:05.576Z,19.73
2018-04-19T04:01:32.770Z,19.35
2018-04-19T04:03:59.305Z,15.63
2018-04-19T04:06:25.776Z,23.00
2018-04-19T04:08:52.187Z,16.70
2018-04-19T04:11:18.577Z,24.45
2018-04-19T04:13:45.031Z,22.42
2018-04-19T04:16:29.719Z,16.87
2018-04-19T04:19:14.399Z,21.73
2018-04-19T04:21:59.312Z,21.23
2018-04-19T04:24:25.711Z,20.65
2018-04-19T04:26:52.110Z,18.67
2018-04-19T04:29:19.250Z,22.87
2018-04-19T04:31:45.637Z,21.60
2018-04-19T04:34:12.046Z,22.77
2018-04-19T04:36:38.452Z,25.80
2018-04-19T04:39:04.884Z,19.55
2018-04-19T04:41:31.999Z,23.33
2018-04-19T04:43:59.388Z,22.73
2018-04-19T04:46:26.481Z,22.70
2018-04-19T04:48:52.913Z,17.52
2018-04-19T04:51:19.297Z,27.65
2018-04-19T04:53:45.681Z,25.80
2018-04-19T04:56:12.065Z,21.50
2018-04-19T04:58:38.505Z,24.33
2018-04-19T05:01:04.961Z,25.67
2018-04-19T05:03:31.330Z,19.52
2018-04-19T05:05:58.547Z,22.90
2018-04-19T05:08:24.994Z,31.70
2018-04-19T05:10:51.533Z,22.23
2018-04-19T05:13:17.937Z,32.17
2018-04-19T05:15:44.436Z,25.12
2018-04-19T05:18:10.887Z,26.23
2018-04-19T05:20:37.318Z,24.85
2018-04-19T05:23:03.803Z,21.48
2018-04-19T05:25:30.932Z,29.30
2018-04-19T05:27:57.348Z,25.58
2018-04-19T05:30:23.760Z,28.67
2018-04-19T05:32:50.160Z,25.35
2018-04-19T05:35:16.573Z,22.33
2018-04-19T05:37:43.728Z,22.30
2018-04-19T05:40:10.212Z,26.80
2018-04-19T05:42:36.589Z,19.65
2018-04-19T05:45:03.037Z,27.27
2018-04-19T05:47:30.212Z,27.27
2018-04-19T05:49:56.637Z,22.20
2018-04-19T05:52:23.072Z,22.98
2018-04-19T05:54:50.333Z,22.75
2018-04-19T05:57:16.763Z,24.20
2018-04-19T05:59:43.196Z,24.75
2018-04-19T06:02:09.604Z,24.05
2018-04-19T06:04:36.017Z,22.52
2018-04-19T06:07:03.169Z,30.27
2018-04-19T06:09:30.302Z,23.33
2018-04-19T06:11:57.496Z,21.23
2018-04-19T06:14:23.920Z,28.33
2018-04-19T06:16:50.439Z,27.02
2018-04-19T06:19:17.635Z,22.87
2018-04-19T06:21:44.182Z,25.42
2018-04-19T06:24:10.644Z,21.52
2018-04-19T06:26:37.070Z,25.62
2018-04-19T06:29:04.337Z,27.62
2018-04-19T06:31:30.758Z,23.60
2018-04-19T06:33:57.983Z,30.83
2018-04-19T06:36:24.406Z,28.48
2018-04-19T06:38:50.845Z,26.23
2018-04-19T06:41:17.300Z,37.92
2018-04-19T06:43:43.744Z,24.42
2018-04-19T06:46:10.195Z,24.25
2018-04-19T06:48:36.870Z,26.90
2018-04-19T06:51:03.299Z,24.98
2018-04-19T06:53:29.722Z,25.95
2018-04-19T06:55:56.100Z,24.85
2018-04-19T06:58:22.590Z,30.05
2018-04-19T07:00:49.024Z,21.55
2018-04-19T07:03:15.466Z,28.80
2018-04-19T07:05:41.966Z,22.15
2018-04-19T07:08:08.431Z,22.17
2018-04-19T07:10:34.892Z,24.25
2018-04-19T07:13:01.312Z,24.53
2018-04-19T07:15:28.455Z,29.17
2018-04-19T07:17:54.936Z,27.97
2018-04-19T07:20:21.336Z,27.17
2018-04-19T07:22:47.743Z,17.37
2018-04-19T07:25:14.200Z,18.90
2018-04-19T07:27:40.699Z,18.30
2018-04-19T07:30:07.071Z,17.77
2018-04-19T07:32:33.506Z,18.47
2018-04-19T07:34:59.974Z,13.83
2018-04-19T07:37:26.392Z,15.53
2018-04-19T07:39:52.821Z,16.33
2018-04-19T07:42:19.189Z,13.60
2018-04-19T07:44:45.573Z,19.80
2018-04-19T07:47:11.974Z,17.13
2018-04-19T07:49:38.493Z,15.57
2018-04-19T07:52:04.985Z,16.63
2018-04-19T07:54:31.439Z,23.13
2018-04-19T07:56:57.871Z,13.57
2018-04-19T07:59:25.304Z,15.10
2018-04-19T08:01:51.729Z,14.37
2018-04-19T08:04:18.128Z,14.10
2018-04-19T08:06:45.292Z,15.90
2018-04-19T08:09:12.408Z,12.30
2018-04-19T08:11:38.926Z,13.77
2018-04-19T08:14:05.447Z,13.47
2018-04-19T08:16:31.880Z,11.47
2018-04-19T08:18:58.286Z,12.63
2018-04-19T08:21:24.760Z,11.73
2018-04-19T08:23:51.156Z,11.67
2018-04-19T08:26:17.551Z,12.90
2018-04-19T08:28:43.968Z,17.20
2018-04-19T08:31:10.443Z,10.67
2018-04-19T08:33:36.866Z,11.93
2018-04-19T08:36:03.275Z,10.97
2018-04-19T08:38:30.413Z,14.27
2018-04-19T08:40:57.543Z,11.40
2018-04-19T08:43:24.007Z,11.27
2018-04-19T08:45:50.420Z,11.30
2018-04-19T08:48:16.852Z,10.80
2018-04-19T08:50:43.244Z,10.23
2018-04-19T08:53:09.757Z,10.60
2018-04-19T08:55:36.147Z,13.80
2018-04-19T08:58:02.706Z,10.80
2018-04-19T09:00:29.138Z,9.67
2018-04-19T09:02:55.546Z,17.70
2018-04-19T09:05:22.897Z,9.67
2018-04-19T09:07:49.330Z,11.10
2018-04-19T09:10:15.847Z,9.07
2018-04-19T09:12:42.261Z,14.20
2018-04-19T09:15:08.679Z,8.30
2018-04-19T09:17:35.069Z,9.27
2018-04-19T09:20:02.385Z,9.97
2018-04-19T09:22:28.821Z,10.23
2018-04-19T09:24:55.257Z,9.30
2018-04-19T09:27:21.686Z,19.83
2018-04-19T09:29:48.329Z,11.23
2018-04-19T09:32:14.711Z,10.30
2018-04-19T09:34:41.126Z,16.20
2018-04-19T09:37:08.419Z,8.57
2018-04-19T09:39:34.841Z,8.80
2018-04-19T09:42:01.292Z,9.70
2018-04-19T09:44:27.674Z,13.83
2018-04-19T09:46:54.060Z,9.20
2018-04-19T09:49:20.431Z,18.80
2018-04-19T09:51:47.640Z,9.83
2018-04-19T09:54:14.099Z,10.50
2018-04-19T09:56:40.440Z,7.83
2018-04-19T09:59:11.921Z,10.60
2018-04-19T10:01:44.510Z,16.17
2018-04-19T10:04:13.009Z,8.53
2018-04-19T10:06:40.548Z,13.63
2018-04-19T10:09:07.014Z,11.33
2018-04-19T10:11:34.341Z,8.17
2018-04-19T10:14:00.850Z,6.80
2018-04-19T10:16:28.298Z,10.73
2018-04-19T10:18:54.746Z,7.17
2018-04-19T10:21:21.193Z,7.40
2018-04-19T10:23:47.592Z,8.17
2018-04-19T10:26:13.975Z,9.03
2018-04-19T10:28:40.389Z,9.40
2018-04-19T10:31:06.856Z,10.57
2018-04-19T10:33:34.037Z,12.70
2018-04-19T10:36:00.458Z,8.90
2018-04-19T10:38:26.832Z,8.70
2018-04-19T10:40:53.185Z,7.90
2018-04-19T10:43:19.598Z,10.00
2018-04-19T10:45:45.966Z,18.70
2018-04-19T10:48:12.401Z,9.50
2018-04-19T10:50:39.525Z,9.17
2018-04-19T10:53:05.937Z,9.13
2018-04-19T10:55:32.338Z,10.30
2018-04-19T10:57:58.774Z,7.47
2018-04-19T11:02:58.238Z,12.00
2018-04-19T11:05:24.649Z,9.27
2018-04-19T11:07:51.154Z,11.00
2018-04-19T11:10:17.588Z,8.90
2018-04-19T11:12:43.966Z,9.60
2018-04-19T11:15:10.360Z,7.77
2018-04-19T11:17:36.746Z,9.53
2018-04-19T11:20:03.265Z,10.90
2018-04-19T11:22:29.676Z,10.50
2018-04-19T11:24:56.083Z,8.43
2018-04-19T11:27:22.497Z,9.77
2018-04-19T11:29:48.941Z,8.03
2018-04-19T11:32:15.357Z,9.73
2018-04-19T11:34:41.909Z,13.50
2018-04-19T11:37:08.324Z,9.47
2018-04-19T11:39:34.805Z,9.87
2018-04-19T11:42:01.214Z,10.60
2018-04-19T11:44:27.640Z,11.97
2018-04-19T11:46:54.058Z,7.93
2018-04-19T11:49:21.228Z,9.73
2018-04-19T11:51:47.648Z,9.73
2018-04-19T11:54:14.071Z,12.83
2018-04-19T11:56:40.532Z,13.37
2018-04-19T11:59:06.984Z,11.10
2018-04-19T12:01:33.381Z,9.40
2018-04-19T12:03:59.868Z,20.47
2018-04-19T12:06:26.996Z,19.73
2018-04-19T12:08:53.436Z,12.50
2018-04-19T12:11:20.596Z,15.90
2018-04-19T12:13:47.853Z,13.77
2018-04-19T12:16:14.409Z,12.90
2018-04-19T12:18:40.847Z,10.67
2018-04-19T12:21:07.221Z,16.57
2018-04-19T12:23:33.669Z,13.60
2018-04-19T12:26:00.908Z,10.33
2018-04-19T12:28:27.292Z,15.27
2018-04-19T12:30:53.715Z,13.50
2018-04-19T12:33:20.140Z,13.73
2018-04-19T12:35:47.273Z,14.30
2018-04-19T12:38:14.537Z,15.10
2018-04-19T12:40:40.928Z,16.57
2018-04-19T12:43:07.396Z,18.87
2018-04-19T12:45:33.829Z,18.43
2018-04-19T12:48:00.226Z,18.43
2018-04-19T12:50:26.661Z,18.40
2018-04-19T12:52:53.056Z,14.80
2018-04-19T12:55:19.568Z,15.87
2018-04-19T12:57:45.985Z,13.53
2018-04-19T13:00:12.454Z,14.20
2018-04-19T13:02:39.532Z,18.27
2018-04-19T13:05:06.089Z,16.37
2018-04-19T13:07:32.556Z,16.93
2018-04-19T13:09:59.004Z,16.27
2018-04-19T13:12:25.429Z,23.60
2018-04-19T13:14:51.929Z,17.47
2018-04-19T13:17:18.450Z,16.87
2018-04-19T13:19:44.821Z,19.70
2018-04-19T13:22:11.257Z,17.50
2018-04-19T13:24:37.700Z,14.73
2018-04-19T13:27:04.161Z,16.00
2018-04-19T13:29:30.675Z,15.60
2018-04-19T13:31:57.845Z,17.90
2018-04-19T13:34:25.209Z,12.17
2018-04-19T13:36:52.404Z,14.80
2018-04-19T13:39:18.869Z,13.93
2018-04-19T13:41:45.269Z,14.63
2018-04-19T13:44:11.744Z,14.63
2018-04-19T13:46:38.902Z,19.23
2018-04-19T13:49:05.409Z,13.47
2018-04-19T13:51:31.812Z,19.00
2018-04-19T13:53:58.285Z,16.87
2018-04-19T13:56:24.696Z,12.67
2018-04-19T13:58:51.096Z,12.63
2018-04-19T14:01:17.488Z,16.40
2018-04-19T14:03:43.918Z,15.33
2018-04-19T14:06:10.367Z,14.37
2018-04-19T14:08:36.792Z,13.17
2018-04-19T14:11:03.252Z,11.80
2018-04-19T14:13:40.256Z,15.47
2018-04-19T14:16:06.709Z,12.57
2018-04-19T14:18:33.145Z,10.87
2018-04-19T14:20:59.545Z,14.60
2018-04-19T14:23:25.976Z,16.60
2018-04-19T14:25:52.432Z,9.60
2018-04-19T14:28:18.824Z,13.10
2018-04-19T14:30:45.273Z,9.83
2018-04-19T14:33:11.675Z,10.33
2018-04-19T14:35:38.094Z,10.90
2018-04-19T14:38:04.537Z,13.70
2018-04-19T14:40:31.052Z,14.53
2018-04-19T14:42:58.184Z,13.17
2018-04-19T14:45:24.634Z,11.93
2018-04-19T14:47:51.929Z,11.87
2018-04-19T14:50:18.418Z,16.40
2018-04-19T14:52:44.853Z,15.47
2018-04-19T14:55:12.011Z,10.37
2018-04-19T14:57:38.515Z,14.73
2018-04-19T15:00:05.029Z,11.20
2018-04-19T15:02:32.198Z,13.33
2018-04-19T15:04:58.640Z,12.03
2018-04-19T15:07:25.046Z,12.80
2018-04-19T15:09:51.571Z,12.10
2018-04-19T15:12:18.030Z,12.70
2018-04-19T15:14:45.180Z,15.57
2018-04-19T15:17:12.389Z,12.27
2018-04-19T15:19:38.828Z,13.70
2018-04-19T15:22:05.235Z,10.70
2018-04-19T15:24:31.669Z,15.00
2018-04-19T15:26:58.094Z,10.63
2018-04-19T15:29:24.539Z,11.60
2018-04-19T15:31:51.007Z,12.50
2018-04-19T15:34:17.405Z,26.47
2018-04-19T15:36:43.824Z,15.13
2018-04-19T15:39:10.307Z,13.47
2018-04-19T15:41:37.559Z,11.50
2018-04-19T15:44:03.994Z,13.10
2018-04-19T15:46:31.133Z,12.57
2018-04-19T15:48:58.307Z,11.50
2018-04-19T15:51:25.431Z,11.83
2018-04-19T15:53:51.929Z,14.07
2018-04-19T15:56:18.380Z,12.80
2018-04-19T15:58:44.904Z,10.63
2018-04-19T16:01:12.284Z,15.63
2018-04-19T16:03:38.639Z,8.93
2018-04-19T16:06:05.093Z,8.20
2018-04-19T16:08:31.514Z,10.63
2018-04-19T16:10:57.920Z,9.97
2018-04-19T16:13:24.374Z,13.40
2018-04-19T16:15:50.827Z,12.73
2018-04-19T16:18:17.295Z,11.43
2018-04-19T16:20:43.665Z,9.60
2018-04-19T16:23:11.025Z,10.50
2018-04-19T16:25:37.518Z,7.63
2018-04-19T16:28:04.049Z,8.70
2018-04-19T16:30:31.206Z,10.40
2018-04-19T16:32:58.406Z,8.40
2018-04-19T16:35:24.858Z,8.60
2018-04-19T16:37:51.341Z,9.17
2018-04-19T16:40:17.805Z,8.17
2018-04-19T16:42:44.295Z,8.70
2018-04-19T16:45:10.729Z,8.60
2018-04-19T16:47:37.975Z,9.23
2018-04-19T16:50:04.412Z,12.73
2018-04-19T16:52:30.916Z,7.93
2018-04-19T16:54:57.447Z,6.73
2018-04-19T16:57:24.029Z,9.50
2018-04-19T16:59:51.249Z,9.97
2018-04-19T17:02:17.706Z,6.23
2018-04-19T17:04:44.884Z,6.87
2018-04-19T17:07:11.336Z,11.17
2018-04-19T17:09:37.930Z,9.43
2018-04-19T17:12:04.380Z,5.87
2018-04-19T17:14:30.881Z,11.30
2018-04-19T17:16:57.340Z,11.77
2018-04-19T17:19:23.765Z,16.03
2018-04-19T17:21:50.202Z,7.03
2018-04-19T17:24:16.787Z,14.13
2018-04-19T17:26:43.220Z,11.03
2018-04-19T17:29:09.789Z,7.03
2018-04-19T17:31:36.953Z,11.67
2018-04-19T17:34:03.353Z,10.33
2018-04-19T17:36:30.595Z,12.57
2018-04-19T17:38:56.973Z,14.13
2018-04-19T17:41:23.435Z,14.30
2018-04-19T17:43:49.810Z,13.63
2018-04-19T17:46:16.232Z,6.83
2018-04-19T17:48:42.634Z,9.07
2018-04-19T17:51:09.099Z,9.20
2018-04-19T17:53:35.574Z,8.43
2018-04-19T17:56:01.998Z,11.23
2018-04-19T17:58:28.463Z,13.50
2018-04-19T18:00:55.014Z,9.70
2018-04-19T18:03:21.559Z,13.57
2018-04-19T18:05:48.050Z,6.97
2018-04-19T18:08:14.604Z,10.17
2018-04-19T18:10:41.053Z,5.20
2018-04-19T18:13:07.496Z,15.23
2018-04-19T18:15:33.968Z,8.40
2018-04-19T18:18:00.456Z,15.03
2018-04-19T18:20:27.592Z,15.93
2018-04-19T18:22:54.066Z,14.00
2018-04-19T18:25:20.515Z,13.87
2018-04-19T18:27:46.987Z,14.23
2018-04-19T18:30:14.193Z,9.47
2018-04-19T18:32:40.559Z,9.13
2018-04-19T18:35:07.012Z,10.70
2018-04-19T18:37:34.147Z,9.87
2018-04-19T18:40:00.611Z,13.83
2018-04-19T18:42:27.045Z,9.80
2018-04-19T18:44:53.480Z,11.17
2018-04-19T18:47:19.913Z,10.47
2018-04-19T18:49:46.427Z,15.27
2018-04-19T18:52:13.637Z,13.07
2018-04-19T18:54:40.084Z,15.60
2018-04-19T18:57:06.572Z,15.07
2018-04-19T18:59:32.995Z,15.50
2018-04-19T19:01:59.531Z,12.70
2018-04-19T19:04:25.939Z,11.80
2018-04-19T19:06:53.144Z,13.30
2018-04-19T19:09:19.548Z,12.03
2018-04-19T19:11:45.992Z,12.73
2018-04-19T19:14:12.437Z,14.87
2018-04-19T19:16:38.894Z,14.03
2018-04-19T19:19:23.663Z,14.03
2018-04-19T19:21:50.101Z,11.83
2018-04-19T19:24:17.538Z,8.83
2018-04-19T19:26:43.960Z,11.97
2018-04-19T19:29:10.356Z,9.77
2018-04-19T19:31:36.826Z,9.50
2018-04-19T19:34:03.252Z,10.00
2018-04-19T19:36:29.693Z,11.03
2018-04-19T19:38:56.901Z,10.30
2018-04-19T19:41:23.361Z,9.67
2018-04-19T19:43:49.831Z,11.40
2018-04-19T19:46:17.057Z,13.40
2018-04-19T19:48:43.515Z,14.43
2018-04-19T19:51:10.716Z,8.30
2018-04-19T19:53:37.241Z,12.80
2018-04-19T19:56:03.864Z,12.80
2018-04-19T19:58:30.376Z,6.40
2018-04-19T20:00:56.853Z,11.33
2018-04-19T20:03:23.267Z,12.77
2018-04-19T20:05:49.718Z,15.33
2018-04-19T20:08:16.159Z,8.83
2018-04-19T20:10:42.783Z,8.90
2018-04-19T20:13:09.202Z,11.40
2018-04-19T20:15:35.726Z,10.87
2018-04-19T20:18:02.291Z,13.03
2018-04-19T20:20:28.748Z,12.50
2018-04-19T20:22:55.265Z,14.97
2018-04-19T20:25:21.748Z,15.73
2018-04-19T20:27:48.192Z,14.67
2018-04-19T20:30:14.620Z,12.23
2018-04-19T20:32:41.031Z,12.10
2018-04-19T20:35:07.524Z,12.47
2018-04-19T20:37:34.049Z,15.73
2018-04-19T20:40:00.533Z,16.37
2018-04-19T20:42:27.000Z,13.33
2018-04-19T20:44:54.128Z,12.27
2018-04-19T20:47:20.678Z,12.50
2018-04-19T20:49:47.216Z,12.93
2018-04-19T20:52:13.653Z,15.67
2018-04-19T20:54:40.137Z,12.90
2018-04-19T20:57:06.758Z,11.97
2018-04-19T20:59:33.210Z,21.30
2018-04-19T21:02:00.479Z,11.43
2018-04-19T21:04:26.891Z,10.93
2018-04-19T21:06:54.108Z,13.00
2018-04-19T21:09:20.611Z,15.90
2018-04-19T21:11:47.130Z,14.80
2018-04-19T21:14:13.577Z,11.90
2018-04-19T21:16:40.052Z,10.03
2018-04-19T21:19:06.567Z,12.20
2018-04-19T21:21:33.038Z,11.33
2018-04-19T21:24:00.372Z,19.43
2018-04-19T21:26:26.834Z,9.87
2018-04-19T21:28:53.302Z,11.20
2018-04-19T21:31:19.730Z,9.00
2018-04-19T21:33:46.165Z,8.47
2018-04-19T21:36:13.030Z,15.87
2018-04-19T21:38:39.588Z,9.43
2018-04-19T21:41:06.822Z,9.50
2018-04-19T21:43:34.017Z,10.33
2018-04-19T21:46:00.462Z,11.53
2018-04-19T21:48:26.929Z,10.13
2018-04-19T21:50:53.383Z,15.60
2018-04-19T21:53:20.786Z,10.80
2018-04-19T21:55:47.218Z,9.40
2018-04-19T21:58:14.638Z,13.63
2018-04-19T22:00:41.088Z,10.70
2018-04-19T22:03:07.520Z,8.00
2018-04-19T22:05:33.977Z,17.67
2018-04-19T22:08:00.396Z,9.83
2018-04-19T22:10:26.943Z,9.60
2018-04-19T22:12:53.400Z,10.33
2018-04-19T22:15:20.604Z,8.70
2018-04-19T22:17:47.008Z,8.43
2018-04-19T22:20:13.412Z,9.20
2018-04-19T22:22:40.647Z,7.20
2018-04-19T22:25:07.055Z,9.57
2018-04-19T22:27:33.477Z,11.30
2018-04-19T22:30:00.060Z,9.43
2018-04-19T22:32:26.462Z,11.03
2018-04-19T22:34:52.839Z,10.63
2018-04-19T22:37:19.993Z,9.87
2018-04-19T22:39:47.125Z,11.57
2018-04-19T22:42:14.317Z,13.73
2018-04-19T22:44:40.864Z,12.50
2018-04-19T22:47:07.997Z,12.33
2018-04-19T22:49:34.432Z,8.10
2018-04-19T22:52:00.866Z,7.97
2018-04-19T22:54:27.309Z,9.23
2018-04-19T22:56:53.747Z,11.30
2018-04-19T22:59:20.174Z,12.15
2018-04-19T23:01:46.619Z,8.93
2018-04-19T23:04:13.037Z,12.33
2018-04-19T23:06:39.475Z,10.63
2018-04-19T23:09:06.858Z,8.30
2018-04-19T23:11:34.041Z,15.20
2018-04-19T23:14:00.446Z,10.32
2018-04-19T23:16:26.837Z,10.20
2018-04-19T23:18:53.246Z,10.10
2018-04-19T23:21:19.664Z,9.75
2018-04-19T23:23:46.793Z,9.60
2018-04-19T23:26:13.235Z,10.20
2018-04-19T23:28:39.691Z,13.50
2018-04-19T23:31:06.127Z,9.23
2018-04-19T23:33:32.637Z,10.55
2018-04-19T23:35:59.059Z,8.45
2018-04-19T23:38:25.492Z,11.07
2018-04-19T23:40:52.666Z,11.15
2018-04-19T23:43:19.025Z,12.60
2018-04-19T23:45:45.428Z,12.68
2018-04-19T23:48:11.865Z,12.00
2018-04-19T23:50:38.266Z,13.02
2018-04-19T23:53:05.521Z,8.88
2018-04-19T23:55:32.739Z,8.80
2018-04-19T23:57:59.132Z,9.07
